createdAt,value
2024-02-17T00:00:30.979Z,102193.84
2024-02-17T00:02:57.799Z,102206.50
2024-02-17T00:05:24.841Z,102216.22
2024-02-17T00:07:52.140Z,102207.00
2024-02-17T00:10:18.886Z,102214.00
2024-02-17T00:12:45.930Z,102217.47
2024-02-17T00:15:13.226Z,102218.47
2024-02-17T00:17:40.053Z,102214.88
2024-02-17T00:20:08.760Z,102222.97
2024-02-17T00:22:35.706Z,102231.09
2024-02-17T00:25:02.653Z,102231.09
2024-02-17T00:27:29.386Z,102232.94
2024-02-17T00:29:56.342Z,102226.69
2024-02-17T00:32:23.187Z,102238.25
2024-02-17T00:34:50.097Z,102230.13
2024-02-17T00:37:16.939Z,102243.66
2024-02-17T00:39:43.779Z,102248.09
2024-02-17T00:42:10.800Z,102250.78
2024-02-17T00:44:38.496Z,102257.06
2024-02-17T00:47:05.564Z,102259.91
2024-02-17T00:49:32.535Z,102263.34
2024-02-17T00:51:59.577Z,102261.63
2024-02-17T00:54:26.595Z,102266.03
2024-02-17T00:56:53.411Z,102272.31
2024-02-17T00:59:20.138Z,102278.72
2024-02-17T01:01:49.014Z,102277.00
2024-02-17T01:04:16.930Z,102288.66
2024-02-17T01:06:43.902Z,102287.81
2024-02-17T01:09:11.315Z,102292.34
2024-02-17T01:11:38.247Z,102296.91
2024-02-17T01:14:05.119Z,102296.91
2024-02-17T01:16:31.855Z,102298.72
2024-02-17T01:18:58.628Z,102301.44
2024-02-17T01:21:25.596Z,102307.72
2024-02-17T01:23:52.511Z,102310.31
2024-02-17T01:26:19.298Z,102314.88
2024-02-17T01:28:46.083Z,102318.56
2024-02-17T01:31:12.771Z,102328.38
2024-02-17T01:33:39.592Z,102323.97
2024-02-17T01:36:13.624Z,102326.66
2024-02-17T01:38:40.453Z,102323.97
2024-02-17T01:41:07.302Z,102325.03
2024-02-17T01:43:34.052Z,102323.41
2024-02-17T01:46:00.873Z,102328.97
2024-02-17T01:48:27.731Z,102333.72
2024-02-17T01:50:54.798Z,102338.75
2024-02-17T01:53:21.829Z,102334.75
2024-02-17T01:55:48.760Z,102338.88
2024-02-17T01:58:15.858Z,102344.75
2024-02-17T02:00:42.827Z,102341.63
2024-02-17T02:03:09.802Z,102350.28
2024-02-17T02:05:36.701Z,102346.19
2024-02-17T02:08:03.631Z,102350.94
2024-02-17T02:10:30.559Z,102349.44
2024-02-17T02:12:57.397Z,102348.78
2024-02-17T02:15:32.900Z,102355.03
2024-02-17T02:18:03.970Z,102359.16
2024-02-17T02:20:30.932Z,102364.44
2024-02-17T02:22:57.784Z,102359.81
2024-02-17T02:25:26.300Z,102361.41
2024-02-17T02:27:54.419Z,102372.13
2024-02-17T02:30:22.210Z,102366.94
2024-02-17T02:32:49.877Z,102366.28
2024-02-17T02:35:16.902Z,102362.94
2024-02-17T02:37:43.798Z,102365.00
2024-02-17T02:40:10.864Z,102370.72
2024-02-17T02:42:37.739Z,102389.13
2024-02-17T02:45:04.989Z,102390.50
2024-02-17T02:47:31.814Z,102388.38
2024-02-17T02:50:00.618Z,102389.56
2024-02-17T02:52:27.662Z,102391.34
2024-02-17T02:54:54.480Z,102395.91
2024-02-17T02:57:21.630Z,102406.50
2024-02-17T02:59:48.542Z,102405.19
2024-02-17T03:02:15.404Z,102413.63
2024-02-17T03:04:43.095Z,102413.44
2024-02-17T03:07:09.939Z,102420.34
2024-02-17T03:09:36.985Z,102421.88
2024-02-17T03:12:04.533Z,102423.16
2024-02-17T03:14:31.573Z,102425.31
2024-02-17T03:16:58.452Z,102434.06
2024-02-17T03:19:25.203Z,102436.34
2024-02-17T03:21:52.141Z,102437.09
2024-02-17T03:24:19.051Z,102445.00
2024-02-17T03:26:45.896Z,102449.53
2024-02-17T03:29:12.702Z,102462.94
2024-02-17T03:31:39.575Z,102468.34
2024-02-17T03:34:07.491Z,102468.34
2024-02-17T03:36:35.043Z,102468.34
2024-02-17T03:39:10.521Z,102482.63
2024-02-17T03:41:37.500Z,102479.69
2024-02-17T03:44:04.946Z,102482.41
2024-02-17T03:46:32.009Z,102478.75
2024-02-17T03:48:58.897Z,102488.69
2024-02-17T03:51:25.954Z,102497.75
2024-02-17T03:53:52.736Z,102497.00
2024-02-17T03:56:19.673Z,102506.97
2024-02-17T03:58:46.535Z,102506.00
2024-02-17T04:01:13.423Z,102515.94
2024-02-17T04:03:40.365Z,102511.59
2024-02-17T04:06:07.569Z,102513.66
2024-02-17T04:08:34.531Z,102517.44
2024-02-17T04:11:02.396Z,102528.47
2024-02-17T04:13:29.348Z,102521.34
2024-02-17T04:15:56.245Z,102520.69
2024-02-17T04:18:23.275Z,102528.91
2024-02-17T04:20:50.103Z,102534.53
2024-02-17T04:23:16.892Z,102547.25
2024-02-17T04:25:43.716Z,102544.69
2024-02-17T04:28:10.538Z,102533.00
2024-02-17T04:30:37.427Z,102552.91
2024-02-17T04:33:05.025Z,102561.22
2024-02-17T04:35:32.154Z,102557.66
2024-02-17T04:37:59.133Z,102563.13
2024-02-17T04:40:25.962Z,102571.25
2024-02-17T04:42:55.316Z,102586.59
2024-02-17T04:45:22.326Z,102576.00
2024-02-17T04:47:49.153Z,102588.75
2024-02-17T04:50:16.101Z,102586.16
2024-02-17T04:52:42.791Z,102588.84
2024-02-17T04:55:10.332Z,102599.75
2024-02-17T04:57:37.328Z,102607.84
2024-02-17T05:00:07.285Z,102602.44
2024-02-17T05:02:37.441Z,102606.06
2024-02-17T05:05:04.882Z,102618.59
2024-02-17T05:07:31.834Z,102618.59
2024-02-17T05:09:58.877Z,102611.47
2024-02-17T05:12:25.898Z,102615.09
2024-02-17T05:14:52.933Z,102617.81
2024-02-17T05:17:19.702Z,102618.66
2024-02-17T05:19:47.183Z,102621.38
2024-02-17T05:22:14.253Z,102618.59
2024-02-17T05:24:44.059Z,102640.19
2024-02-17T05:27:11.048Z,102650.03
2024-02-17T05:29:42.017Z,102649.28
2024-02-17T05:32:09.413Z,102661.03
2024-02-17T05:34:37.783Z,102670.00
2024-02-17T05:37:05.929Z,102670.13
2024-02-17T05:39:33.630Z,102665.69
2024-02-17T05:42:01.290Z,102663.00
2024-02-17T05:44:28.817Z,102668.41
2024-02-17T05:46:55.960Z,102669.38
2024-02-17T05:49:24.104Z,102667.59
2024-02-17T05:51:51.681Z,102673.00
2024-02-17T05:54:19.697Z,102673.00
2024-02-17T05:56:47.082Z,102682.88
2024-02-17T05:59:16.780Z,102686.53
2024-02-17T06:01:44.176Z,102691.06
2024-02-17T06:04:11.188Z,102702.72
2024-02-17T06:06:38.520Z,102696.59
2024-02-17T06:09:05.546Z,102699.38
2024-02-17T06:11:32.838Z,102703.16
2024-02-17T06:13:59.636Z,102707.78
2024-02-17T06:16:29.750Z,102707.13
2024-02-17T06:19:15.858Z,102706.47
2024-02-17T06:21:42.887Z,102707.50
2024-02-17T06:24:10.696Z,102713.97
2024-02-17T06:26:37.640Z,102722.19
2024-02-17T06:29:05.191Z,102728.56
2024-02-17T06:31:34.643Z,102731.34
2024-02-17T06:34:04.628Z,102735.97
2024-02-17T06:36:31.822Z,102745.06
2024-02-17T06:38:58.577Z,102752.38
2024-02-17T06:41:25.231Z,102756.03
2024-02-17T06:43:52.166Z,102760.69
2024-02-17T06:46:19.118Z,102755.38
2024-02-17T06:48:50.795Z,102759.22
2024-02-17T06:51:18.650Z,102768.41
2024-02-17T06:53:45.607Z,102773.13
2024-02-17T06:56:12.551Z,102781.22
2024-02-17T06:58:39.267Z,102776.88
2024-02-17T07:01:06.396Z,102779.66
2024-02-17T07:03:33.536Z,102784.22
2024-02-17T07:06:00.752Z,102787.09
2024-02-17T07:08:28.203Z,102796.22
2024-02-17T07:10:55.143Z,102811.56
2024-02-17T07:13:21.967Z,102810.69
2024-02-17T07:15:48.781Z,102820.63
2024-02-17T07:18:17.753Z,102815.22
2024-02-17T07:20:46.428Z,102826.22
2024-02-17T07:23:14.827Z,102824.47
2024-02-17T07:25:43.132Z,102824.59
2024-02-17T07:28:14.269Z,102831.03
2024-02-17T07:30:42.807Z,102845.56
2024-02-17T07:33:11.772Z,102840.28
2024-02-17T07:35:43.483Z,102848.47
2024-02-17T07:38:11.170Z,102854.03
2024-02-17T07:40:41.111Z,102852.38
2024-02-17T07:43:08.366Z,102865.13
2024-02-17T07:45:35.483Z,102861.81
2024-02-17T07:48:02.508Z,102877.31
2024-02-17T07:50:29.464Z,102883.75
2024-02-17T07:52:56.367Z,102885.59
2024-02-17T07:55:23.290Z,102891.84
2024-02-17T07:57:50.888Z,102901.50
2024-02-17T08:00:18.506Z,102895.06
2024-02-17T08:02:47.490Z,102891.31
2024-02-17T08:05:15.006Z,102897.41
2024-02-17T08:07:42.517Z,102900.97
2024-02-17T08:10:12.168Z,102904.81
2024-02-17T08:12:39.516Z,102909.25
2024-02-17T08:15:07.961Z,102911.00
2024-02-17T08:17:35.917Z,102923.34
2024-02-17T08:20:05.328Z,102923.25
2024-02-17T08:22:33.706Z,102922.28
2024-02-17T08:25:02.167Z,102927.59
2024-02-17T08:27:29.325Z,102928.09
2024-02-17T08:29:56.207Z,102936.13
2024-02-17T08:32:23.045Z,102940.56
2024-02-17T08:34:51.037Z,102934.03
2024-02-17T08:37:18.024Z,102936.53
2024-02-17T08:39:49.561Z,102946.38
2024-02-17T08:42:17.075Z,102946.56
2024-02-17T08:44:43.905Z,102941.84
2024-02-17T08:47:12.190Z,102955.66
2024-02-17T08:49:39.255Z,102953.56
2024-02-17T08:52:06.524Z,102951.75
2024-02-17T08:54:33.340Z,102959.75
2024-02-17T08:57:00.107Z,102952.06
2024-02-17T08:59:26.889Z,102962.84
2024-02-17T09:01:53.661Z,102968.94
2024-02-17T09:04:20.579Z,102968.78
2024-02-17T09:06:47.617Z,102979.47
2024-02-17T09:09:14.544Z,102986.03
2024-02-17T09:11:41.617Z,102988.63
2024-02-17T09:14:08.492Z,102978.69
2024-02-17T09:16:35.366Z,102987.88
2024-02-17T09:19:02.191Z,103009.59
2024-02-17T09:21:29.013Z,103012.41
2024-02-17T09:23:56.312Z,103004.09
2024-02-17T09:26:24.978Z,103011.22
2024-02-17T09:28:52.130Z,103013.16
2024-02-17T09:31:18.945Z,103021.78
2024-02-17T09:33:46.557Z,103013.47
2024-02-17T09:36:14.578Z,103020.81
2024-02-17T09:38:41.457Z,103024.09
2024-02-17T09:41:08.268Z,103024.69
2024-02-17T09:43:35.566Z,103028.94
2024-02-17T09:46:03.141Z,103030.50
2024-02-17T09:48:30.308Z,103037.66
2024-02-17T09:50:58.771Z,103038.72
2024-02-17T09:53:25.993Z,103037.97
2024-02-17T09:55:52.815Z,103039.81
2024-02-17T09:58:19.642Z,103035.38
2024-02-17T10:00:49.565Z,103038.38
2024-02-17T10:03:19.290Z,103039.59
2024-02-17T10:05:46.683Z,103050.00
2024-02-17T10:08:13.982Z,103055.41
2024-02-17T10:10:44.408Z,103063.94
2024-02-17T10:13:22.106Z,103065.72
2024-02-17T10:15:49.187Z,103064.97
2024-02-17T10:18:21.035Z,103061.06
2024-02-17T10:20:55.542Z,103069.94
2024-02-17T10:23:26.386Z,103066.47
2024-02-17T10:25:53.119Z,103069.91
2024-02-17T10:28:19.957Z,103073.88
2024-02-17T10:30:46.752Z,103076.38
2024-02-17T10:33:16.929Z,103076.13
2024-02-17T10:35:47.482Z,103070.66
2024-02-17T10:38:14.371Z,103072.50
2024-02-17T10:40:42.422Z,103073.28
2024-02-17T10:43:09.418Z,103075.28
2024-02-17T10:45:36.496Z,103070.31
2024-02-17T10:48:11.281Z,103072.31
2024-02-17T10:50:45.761Z,103071.72
2024-02-17T10:53:27.741Z,103074.69
2024-02-17T10:55:58.817Z,103075.38
2024-02-17T10:58:25.722Z,103070.34
2024-02-17T11:00:53.620Z,103080.06
2024-02-17T11:03:24.991Z,103086.31
2024-02-17T11:06:09.866Z,103086.63
2024-02-17T11:08:37.224Z,103088.09
2024-02-17T11:11:33.051Z,103082.91
2024-02-17T11:14:00.724Z,103081.38
2024-02-17T11:16:35.406Z,103093.00
2024-02-17T11:19:02.680Z,103090.16
2024-02-17T11:21:39.121Z,103086.16
2024-02-17T11:24:10.102Z,103095.28
2024-02-17T11:26:44.430Z,103095.25
2024-02-17T11:29:32.650Z,103098.91
2024-02-17T11:32:05.680Z,103101.22
2024-02-17T11:34:53.479Z,103098.25
2024-02-17T11:37:22.601Z,103103.75
2024-02-17T11:39:52.246Z,103106.19
2024-02-17T11:42:20.310Z,103105.25
2024-02-17T11:44:53.045Z,103108.63
2024-02-17T11:47:19.812Z,103113.19
2024-02-17T11:49:46.833Z,103101.53
2024-02-17T11:52:16.855Z,103105.16
2024-02-17T11:54:53.388Z,103112.31
2024-02-17T11:57:21.811Z,103106.25
2024-02-17T11:59:53.258Z,103108.91
2024-02-17T12:02:23.684Z,103105.44
2024-02-17T12:04:54.181Z,103109.78
2024-02-17T12:07:23.747Z,103106.72
2024-02-17T12:09:53.064Z,103098.75
2024-02-17T12:12:20.206Z,103099.41
2024-02-17T12:14:53.978Z,103107.13
2024-02-17T12:17:25.282Z,103107.66
2024-02-17T12:19:52.533Z,103115.72
2024-02-17T12:22:19.997Z,103121.13
2024-02-17T12:24:46.986Z,103124.91
2024-02-17T12:27:14.085Z,103123.34
2024-02-17T12:29:50.400Z,103120.31
2024-02-17T12:32:21.546Z,103116.13
2024-02-17T12:34:48.798Z,103132.25
2024-02-17T12:37:18.930Z,103132.53
2024-02-17T12:39:46.617Z,103125.91
2024-02-17T12:42:26.602Z,103139.28
2024-02-17T12:44:55.554Z,103135.81
2024-02-17T12:47:25.563Z,103139.22
2024-02-17T12:49:52.604Z,103131.75
2024-02-17T12:52:20.669Z,103128.09
2024-02-17T12:54:47.460Z,103134.63
2024-02-17T12:57:14.463Z,103133.06
2024-02-17T12:59:41.789Z,103128.19
2024-02-17T13:02:09.326Z,103136.19
2024-02-17T13:04:37.233Z,103145.91
2024-02-17T13:07:12.321Z,103139.53
2024-02-17T13:09:47.824Z,103139.34
2024-02-17T13:12:14.815Z,103144.78
2024-02-17T13:14:45.649Z,103143.75
2024-02-17T13:17:12.957Z,103133.97
2024-02-17T13:19:40.461Z,103137.41
2024-02-17T13:22:14.129Z,103141.34
2024-02-17T13:24:42.728Z,103145.25
2024-02-17T13:27:10.042Z,103140.91
2024-02-17T13:29:36.971Z,103142.84
2024-02-17T13:32:04.693Z,103146.34
2024-02-17T13:34:33.075Z,103138.22
2024-02-17T13:37:04.833Z,103140.47
2024-02-17T13:39:33.626Z,103139.94
2024-02-17T13:42:00.834Z,103139.41
2024-02-17T13:44:27.905Z,103151.13
2024-02-17T13:46:57.768Z,103141.88
2024-02-17T13:49:28.864Z,103146.09
2024-02-17T13:51:57.817Z,103148.94
2024-02-17T13:54:25.522Z,103149.59
2024-02-17T13:56:52.284Z,103152.00
2024-02-17T13:59:19.544Z,103152.97
2024-02-17T14:01:46.418Z,103156.25
2024-02-17T14:04:16.302Z,103162.88
2024-02-17T14:06:43.236Z,103152.75
2024-02-17T14:09:09.995Z,103155.13
2024-02-17T14:11:36.785Z,103156.97
2024-02-17T14:14:03.599Z,103159.59
2024-02-17T14:16:30.493Z,103165.03
2024-02-17T14:18:58.029Z,103163.59
2024-02-17T14:21:25.629Z,103166.97
2024-02-17T14:23:53.902Z,103160.78
2024-02-17T14:26:21.092Z,103164.16
2024-02-17T14:28:48.953Z,103161.72
2024-02-17T14:31:17.026Z,103170.41
2024-02-17T14:33:45.411Z,103171.81
2024-02-17T14:36:12.864Z,103176.88
2024-02-17T14:38:40.196Z,103175.91
2024-02-17T14:41:07.562Z,103174.16
2024-02-17T14:43:36.259Z,103170.91
2024-02-17T14:46:03.591Z,103166.66
2024-02-17T14:48:31.255Z,103173.34
2024-02-17T14:50:58.949Z,103182.03
2024-02-17T14:53:25.955Z,103177.53
2024-02-17T14:55:55.699Z,103173.97
2024-02-17T14:58:22.518Z,103175.06
2024-02-17T15:00:49.920Z,103173.31
2024-02-17T15:03:16.842Z,103176.25
2024-02-17T15:05:43.719Z,103180.78
2024-02-17T15:08:10.665Z,103184.56
2024-02-17T15:10:37.637Z,103184.56
2024-02-17T15:13:06.331Z,103184.44
2024-02-17T15:15:33.231Z,103173.72
2024-02-17T15:18:01.656Z,103183.59
2024-02-17T15:20:28.558Z,103179.25
2024-02-17T15:22:55.318Z,103181.09
2024-02-17T15:25:39.754Z,103182.91
2024-02-17T15:28:07.259Z,103188.25
2024-02-17T15:30:34.167Z,103186.53
2024-02-17T15:33:04.615Z,103183.91
2024-02-17T15:35:32.715Z,103173.16
2024-02-17T15:38:04.971Z,103172.19
2024-02-17T15:40:31.743Z,103178.47
2024-02-17T15:42:58.622Z,103183.03
2024-02-17T15:45:25.701Z,103188.56
2024-02-17T15:47:56.971Z,103184.88
2024-02-17T15:50:25.000Z,103184.09
2024-02-17T15:52:52.263Z,103179.56
2024-02-17T15:55:19.617Z,103185.00
2024-02-17T15:57:54.270Z,103187.69
2024-02-17T16:00:25.708Z,103189.44
2024-02-17T16:02:53.514Z,103187.59
2024-02-17T16:05:20.998Z,103193.00
2024-02-17T16:07:47.790Z,103175.88
2024-02-17T16:10:15.657Z,103178.59
2024-02-17T16:12:50.261Z,103181.28
2024-02-17T16:15:19.485Z,103178.47
2024-02-17T16:17:51.569Z,103171.13
2024-02-17T16:20:18.605Z,103152.22
2024-02-17T16:22:48.708Z,103139.66
2024-02-17T16:25:16.147Z,103139.75
2024-02-17T16:27:43.245Z,103147.22
2024-02-17T16:30:10.554Z,103151.00
2024-02-17T16:32:37.472Z,103149.16
2024-02-17T16:35:05.116Z,103151.97
2024-02-17T16:37:32.050Z,103144.91
2024-02-17T16:39:58.838Z,103160.41
2024-02-17T16:42:27.126Z,103170.47
2024-02-17T16:44:54.355Z,103175.13
2024-02-17T16:47:21.381Z,103170.69
2024-02-17T16:49:48.626Z,103164.41
2024-02-17T16:52:15.811Z,103139.25
2024-02-17T16:54:42.778Z,103136.72
2024-02-17T16:57:10.548Z,103116.31
2024-02-17T16:59:38.988Z,103130.28
2024-02-17T17:02:06.211Z,103145.28
2024-02-17T17:04:35.832Z,103137.69
2024-02-17T17:07:08.817Z,103154.13
2024-02-17T17:09:36.442Z,103162.44
2024-02-17T17:12:08.249Z,103170.56
2024-02-17T17:14:36.756Z,103175.00
2024-02-17T17:17:04.421Z,103178.50
2024-02-17T17:19:31.851Z,103189.22
2024-02-17T17:21:58.860Z,103198.13
2024-02-17T17:24:27.169Z,103209.84
2024-02-17T17:26:55.228Z,103202.47
2024-02-17T17:29:22.280Z,103206.94
2024-02-17T17:31:49.328Z,103216.81
2024-02-17T17:34:17.437Z,103216.63
2024-02-17T17:36:44.749Z,103218.44
2024-02-17T17:39:12.069Z,103214.66
2024-02-17T17:41:39.238Z,103208.25
2024-02-17T17:44:08.844Z,103219.88
2024-02-17T17:46:35.669Z,103212.53
2024-02-17T17:49:06.361Z,103215.16
2024-02-17T17:51:36.171Z,103221.44
2024-02-17T17:54:03.145Z,103214.06
2024-02-17T17:56:29.955Z,103214.94
2024-02-17T17:58:56.709Z,103217.56
2024-02-17T18:01:24.384Z,103208.47
2024-02-17T18:03:51.371Z,103216.59
2024-02-17T18:06:18.365Z,103222.00
2024-02-17T18:08:45.278Z,103212.16
2024-02-17T18:11:12.471Z,103219.47
2024-02-17T18:13:39.513Z,103206.91
2024-02-17T18:16:06.804Z,103215.16
2024-02-17T18:18:33.902Z,103212.53
2024-02-17T18:21:00.855Z,103214.47
2024-02-17T18:23:27.632Z,103220.88
2024-02-17T18:25:55.695Z,103217.19
2024-02-17T18:28:22.497Z,103227.03
2024-02-17T18:30:49.352Z,103219.97
2024-02-17T18:33:16.372Z,103207.31
2024-02-17T18:35:45.485Z,103197.44
2024-02-17T18:38:12.457Z,103197.53
2024-02-17T18:40:40.540Z,103183.44
2024-02-17T18:43:07.488Z,103192.03
2024-02-17T18:45:34.578Z,103202.34
2024-02-17T18:48:01.558Z,103202.06
2024-02-17T18:50:28.677Z,103210.66
2024-02-17T18:52:55.572Z,103215.59
2024-02-17T18:55:22.285Z,103208.63
2024-02-17T19:00:20.692Z,103212.84
2024-02-17T19:02:47.601Z,103210.44
2024-02-17T19:05:15.096Z,103209.75
2024-02-17T19:07:44.322Z,103209.28
2024-02-17T19:10:11.854Z,103219.41
2024-02-17T19:12:38.698Z,103201.59
2024-02-17T19:15:06.638Z,103206.44
2024-02-17T19:17:33.474Z,103201.38
2024-02-17T19:20:00.531Z,103199.06
2024-02-17T19:22:28.760Z,103211.03
2024-02-17T19:24:55.936Z,103220.16
2024-02-17T19:27:25.635Z,103226.38
2024-02-17T19:29:52.573Z,103211.72
2024-02-17T19:32:19.400Z,103209.69
2024-02-17T19:34:46.320Z,103213.06
2024-02-17T19:37:13.469Z,103208.56
2024-02-17T19:39:40.299Z,103213.84
2024-02-17T19:42:08.221Z,103216.47
2024-02-17T19:44:35.084Z,103211.91
2024-02-17T19:47:05.422Z,103200.22
2024-02-17T19:49:32.806Z,103199.28
2024-02-17T19:51:59.916Z,103202.75
2024-02-17T19:54:26.852Z,103209.13
2024-02-17T19:56:53.646Z,103198.09
2024-02-17T19:59:20.569Z,103196.19
2024-02-17T20:01:47.463Z,103195.22
2024-02-17T20:04:14.425Z,103196.88
2024-02-17T20:06:41.346Z,103195.16
2024-02-17T20:09:08.156Z,103193.22
2024-02-17T20:11:35.280Z,103193.03
2024-02-17T20:14:05.113Z,103193.91
2024-02-17T20:16:31.969Z,103187.50
2024-02-17T20:18:58.870Z,103192.84
2024-02-17T20:21:25.805Z,103197.19
2024-02-17T20:23:52.698Z,103188.97
2024-02-17T20:26:19.506Z,103187.91
2024-02-17T20:28:46.321Z,103188.72
2024-02-17T20:31:13.346Z,103192.06
2024-02-17T20:33:40.740Z,103195.56
2024-02-17T20:36:08.214Z,103197.31
2024-02-17T20:38:34.973Z,103195.28
2024-02-17T20:41:01.903Z,103203.22
2024-02-17T20:43:28.732Z,103195.09
2024-02-17T20:45:56.255Z,103195.84
2024-02-17T20:48:23.446Z,103188.53
2024-02-17T20:50:53.409Z,103195.69
2024-02-17T20:53:20.586Z,103194.69
2024-02-17T20:55:47.897Z,103188.25
2024-02-17T20:58:15.541Z,103176.53
2024-02-17T21:00:42.546Z,103178.28
2024-02-17T21:03:12.956Z,103181.97
2024-02-17T21:05:43.206Z,103185.59
2024-02-17T21:08:10.966Z,103174.78
2024-02-17T21:10:37.836Z,103168.19
2024-02-17T21:13:04.863Z,103174.41
2024-02-17T21:15:31.697Z,103163.47
2024-02-17T21:17:58.500Z,103174.97
2024-02-17T21:20:25.259Z,103169.38
2024-02-17T21:22:52.191Z,103172.78
2024-02-17T21:25:21.852Z,103175.38
2024-02-17T21:27:51.285Z,103174.19
2024-02-17T21:30:18.952Z,103153.31
2024-02-17T21:32:48.162Z,103163.97
2024-02-17T21:35:17.367Z,103159.34
2024-02-17T21:37:44.176Z,103160.09
2024-02-17T21:40:11.619Z,103162.50
2024-02-17T21:42:38.732Z,103151.47
2024-02-17T21:45:06.934Z,103157.56
2024-02-17T21:47:34.557Z,103151.19
2024-02-17T21:50:01.415Z,103144.69
2024-02-17T21:52:28.783Z,103151.00
2024-02-17T21:54:55.649Z,103135.59
2024-02-17T21:57:22.679Z,103139.97
2024-02-17T21:59:50.010Z,103141.69
2024-02-17T22:02:16.872Z,103136.28
2024-02-17T22:04:44.124Z,103134.31
2024-02-17T22:07:11.214Z,103134.13
2024-02-17T22:09:37.998Z,103125.88
2024-02-17T22:12:05.400Z,103125.81
2024-02-17T22:14:32.197Z,103131.09
2024-02-17T22:16:59.270Z,103128.28
2024-02-17T22:19:26.589Z,103123.66
2024-02-17T22:21:53.840Z,103116.38
2024-02-17T22:24:22.109Z,103111.81
2024-02-17T22:26:49.549Z,103108.91
2024-02-17T22:29:16.405Z,103112.31
2024-02-17T22:31:43.201Z,103104.91
2024-02-17T22:34:11.833Z,103098.44
2024-02-17T22:36:40.138Z,103096.38
2024-02-17T22:39:06.957Z,103106.13
2024-02-17T22:41:33.822Z,103101.50
2024-02-17T22:44:00.984Z,103104.09
2024-02-17T22:46:27.801Z,103103.03
2024-02-17T22:48:54.861Z,103101.84
2024-02-17T22:51:21.823Z,103096.19
2024-02-17T22:53:49.138Z,103103.16
2024-02-17T22:56:17.242Z,103097.63
2024-02-17T22:58:44.179Z,103093.94
2024-02-17T23:01:11.086Z,103101.97
2024-02-17T23:03:39.035Z,103095.59
2024-02-17T23:06:06.343Z,103099.16
2024-02-17T23:08:33.209Z,103096.47
2024-02-17T23:11:00.059Z,103098.94
2024-02-17T23:13:26.890Z,103097.88
2024-02-17T23:15:53.782Z,103096.13
2024-02-17T23:18:20.797Z,103090.72
2024-02-17T23:20:47.636Z,103088.75
2024-02-17T23:23:14.968Z,103084.19
2024-02-17T23:25:42.543Z,103071.94
2024-02-17T23:28:09.773Z,103069.66
2024-02-17T23:30:36.901Z,103066.38
2024-02-17T23:33:04.158Z,103069.19
2024-02-17T23:35:31.014Z,103069.31
2024-02-17T23:37:58.056Z,103059.66
2024-02-17T23:40:25.697Z,103047.03
2024-02-17T23:42:52.691Z,103056.16
2024-02-17T23:45:19.793Z,103054.44
2024-02-17T23:47:46.743Z,103047.28
2024-02-17T23:50:13.619Z,103050.97
2024-02-17T23:52:40.496Z,103041.94
2024-02-17T23:55:09.774Z,103037.50
2024-02-17T23:57:36.988Z,103035.56
